sensor_id;sensor_type;location;lat;lon;timestamp;temperature;humidity
2957;DHT22;1488;51.548;7.222;2024-01-06T00:01:02;22.70;62.30
2957;DHT22;1488;51.548;7.222;2024-01-06T00:03:29;22.70;62.20
2957;DHT22;1488;51.548;7.222;2024-01-06T00:05:56;22.70;62.30
2957;DHT22;1488;51.548;7.222;2024-01-06T00:08:26;22.80;62.60
2957;DHT22;1488;51.548;7.222;2024-01-06T00:10:54;22.70;62.50
2957;DHT22;1488;51.548;7.222;2024-01-06T00:13:21;22.80;62.70
2957;DHT22;1488;51.548;7.222;2024-01-06T00:15:48;22.70;62.50
2957;DHT22;1488;51.548;7.222;2024-01-06T00:18:14;22.70;62.40
2957;DHT22;1488;51.548;7.222;2024-01-06T00:20:41;22.60;62.40
2957;DHT22;1488;51.548;7.222;2024-01-06T00:23:08;22.60;62.30
2957;DHT22;1488;51.548;7.222;2024-01-06T00:25:36;22.60;62.50
2957;DHT22;1488;51.548;7.222;2024-01-06T00:28:04;22.70;62.60
2957;DHT22;1488;51.548;7.222;2024-01-06T00:30:31;22.60;62.50
2957;DHT22;1488;51.548;7.222;2024-01-06T00:32:57;22.60;62.50
2957;DHT22;1488;51.548;7.222;2024-01-06T00:35:24;22.60;62.50
2957;DHT22;1488;51.548;7.222;2024-01-06T00:37:51;22.60;62.50
2957;DHT22;1488;51.548;7.222;2024-01-06T00:40:17;22.60;62.50
2957;DHT22;1488;51.548;7.222;2024-01-06T00:42:46;22.60;62.50
2957;DHT22;1488;51.548;7.222;2024-01-06T00:45:13;22.60;62.50
2957;DHT22;1488;51.548;7.222;2024-01-06T00:47:40;22.50;62.40
2957;DHT22;1488;51.548;7.222;2024-01-06T00:50:07;22.50;62.50
2957;DHT22;1488;51.548;7.222;2024-01-06T00:52:34;22.50;62.60
2957;DHT22;1488;51.548;7.222;2024-01-06T00:55:01;22.50;62.50
2957;DHT22;1488;51.548;7.222;2024-01-06T00:57:28;22.50;62.50
2957;DHT22;1488;51.548;7.222;2024-01-06T00:59:56;22.50;62.50
2957;DHT22;1488;51.548;7.222;2024-01-06T01:02:23;22.50;62.60
2957;DHT22;1488;51.548;7.222;2024-01-06T01:04:49;22.40;62.50
2957;DHT22;1488;51.548;7.222;2024-01-06T01:07:17;22.40;62.30
2957;DHT22;1488;51.548;7.222;2024-01-06T01:09:44;22.40;62.50
2957;DHT22;1488;51.548;7.222;2024-01-06T01:12:11;22.60;62.50
2957;DHT22;1488;51.548;7.222;2024-01-06T01:14:37;22.40;62.40
2957;DHT22;1488;51.548;7.222;2024-01-06T01:17:06;22.50;62.60
2957;DHT22;1488;51.548;7.222;2024-01-06T01:19:32;22.40;62.50
2957;DHT22;1488;51.548;7.222;2024-01-06T01:21:59;22.40;62.40
2957;DHT22;1488;51.548;7.222;2024-01-06T01:24:26;22.40;62.40
2957;DHT22;1488;51.548;7.222;2024-01-06T01:26:53;22.40;62.60
2957;DHT22;1488;51.548;7.222;2024-01-06T01:29:19;22.40;62.40
2957;DHT22;1488;51.548;7.222;2024-01-06T01:31:46;22.40;62.50
2957;DHT22;1488;51.548;7.222;2024-01-06T01:34:14;22.40;62.40
2957;DHT22;1488;51.548;7.222;2024-01-06T01:36:41;22.40;62.30
2957;DHT22;1488;51.548;7.222;2024-01-06T01:39:08;22.40;62.30
2957;DHT22;1488;51.548;7.222;2024-01-06T01:41:35;22.50;62.40
2957;DHT22;1488;51.548;7.222;2024-01-06T01:44:02;22.50;62.40
2957;DHT22;1488;51.548;7.222;2024-01-06T01:46:30;22.40;62.40
2957;DHT22;1488;51.548;7.222;2024-01-06T01:48:58;22.40;62.30
2957;DHT22;1488;51.548;7.222;2024-01-06T01:51:29;22.40;62.30
2957;DHT22;1488;51.548;7.222;2024-01-06T01:53:57;22.40;62.40
2957;DHT22;1488;51.548;7.222;2024-01-06T01:56:24;22.50;62.30
2957;DHT22;1488;51.548;7.222;2024-01-06T01:58:53;22.50;62.40
2957;DHT22;1488;51.548;7.222;2024-01-06T02:01:20;22.50;62.40
2957;DHT22;1488;51.548;7.222;2024-01-06T02:03:46;22.60;62.50
2957;DHT22;1488;51.548;7.222;2024-01-06T02:06:13;22.50;62.30
2957;DHT22;1488;51.548;7.222;2024-01-06T02:08:41;22.50;62.40
2957;DHT22;1488;51.548;7.222;2024-01-06T02:11:08;22.50;62.50
2957;DHT22;1488;51.548;7.222;2024-01-06T02:13:35;22.40;62.30
2957;DHT22;1488;51.548;7.222;2024-01-06T02:16:03;22.40;62.30
2957;DHT22;1488;51.548;7.222;2024-01-06T02:18:31;22.50;62.40
2957;DHT22;1488;51.548;7.222;2024-01-06T02:20:59;22.60;62.30
2957;DHT22;1488;51.548;7.222;2024-01-06T02:23:27;22.50;62.50
2957;DHT22;1488;51.548;7.222;2024-01-06T02:25:55;22.50;62.40
2957;DHT22;1488;51.548;7.222;2024-01-06T02:28:22;22.50;62.30
2957;DHT22;1488;51.548;7.222;2024-01-06T02:30:50;22.50;63.30
2957;DHT22;1488;51.548;7.222;2024-01-06T02:33:17;22.50;62.30
2957;DHT22;1488;51.548;7.222;2024-01-06T02:35:44;22.50;62.30
2957;DHT22;1488;51.548;7.222;2024-01-06T02:38:11;22.50;62.40
2957;DHT22;1488;51.548;7.222;2024-01-06T02:40:39;22.60;62.50
2957;DHT22;1488;51.548;7.222;2024-01-06T02:43:08;22.60;62.50
2957;DHT22;1488;51.548;7.222;2024-01-06T02:45:35;22.50;62.40
2957;DHT22;1488;51.548;7.222;2024-01-06T02:48:01;22.60;62.50
2957;DHT22;1488;51.548;7.222;2024-01-06T02:50:28;22.50;62.40
2957;DHT22;1488;51.548;7.222;2024-01-06T02:52:55;22.40;62.20
2957;DHT22;1488;51.548;7.222;2024-01-06T02:55:22;22.40;62.20
2957;DHT22;1488;51.548;7.222;2024-01-06T02:57:50;22.40;62.20
2957;DHT22;1488;51.548;7.222;2024-01-06T03:00:19;22.50;62.40
2957;DHT22;1488;51.548;7.222;2024-01-06T03:02:46;22.40;62.20
2957;DHT22;1488;51.548;7.222;2024-01-06T03:05:13;22.40;62.30
2957;DHT22;1488;51.548;7.222;2024-01-06T03:07:40;22.50;62.30
2957;DHT22;1488;51.548;7.222;2024-01-06T03:10:07;22.40;62.30
2957;DHT22;1488;51.548;7.222;2024-01-06T03:12:34;22.40;62.20
2957;DHT22;1488;51.548;7.222;2024-01-06T03:15:02;22.40;62.20
2957;DHT22;1488;51.548;7.222;2024-01-06T03:17:29;22.40;62.30
2957;DHT22;1488;51.548;7.222;2024-01-06T03:19:56;22.40;62.10
2957;DHT22;1488;51.548;7.222;2024-01-06T03:22:23;22.40;62.30
2957;DHT22;1488;51.548;7.222;2024-01-06T03:24:50;22.40;62.30
2957;DHT22;1488;51.548;7.222;2024-01-06T03:27:17;22.40;62.30
2957;DHT22;1488;51.548;7.222;2024-01-06T03:29:43;22.40;62.20
2957;DHT22;1488;51.548;7.222;2024-01-06T03:32:12;22.40;62.20
2957;DHT22;1488;51.548;7.222;2024-01-06T03:34:40;22.40;62.20
2957;DHT22;1488;51.548;7.222;2024-01-06T03:37:07;22.40;62.20
2957;DHT22;1488;51.548;7.222;2024-01-06T03:39:34;22.40;62.20
2957;DHT22;1488;51.548;7.222;2024-01-06T03:42:00;22.40;62.10
2957;DHT22;1488;51.548;7.222;2024-01-06T03:44:28;22.40;62.00
2957;DHT22;1488;51.548;7.222;2024-01-06T03:46:56;22.40;62.10
2957;DHT22;1488;51.548;7.222;2024-01-06T03:49:25;22.40;62.10
2957;DHT22;1488;51.548;7.222;2024-01-06T03:51:53;22.40;62.00
2957;DHT22;1488;51.548;7.222;2024-01-06T03:54:19;22.40;61.90
2957;DHT22;1488;51.548;7.222;2024-01-06T03:56:46;22.50;62.20
2957;DHT22;1488;51.548;7.222;2024-01-06T03:59:13;22.40;62.20
2957;DHT22;1488;51.548;7.222;2024-01-06T04:01:40;22.40;62.10
2957;DHT22;1488;51.548;7.222;2024-01-06T04:04:07;22.40;62.10
2957;DHT22;1488;51.548;7.222;2024-01-06T04:06:35;22.40;62.00
2957;DHT22;1488;51.548;7.222;2024-01-06T04:09:03;22.40;61.90
2957;DHT22;1488;51.548;7.222;2024-01-06T04:11:30;22.40;62.00
2957;DHT22;1488;51.548;7.222;2024-01-06T04:13:57;22.40;62.00
2957;DHT22;1488;51.548;7.222;2024-01-06T04:16:25;22.40;61.90
2957;DHT22;1488;51.548;7.222;2024-01-06T04:18:52;22.40;62.00
2957;DHT22;1488;51.548;7.222;2024-01-06T04:21:19;22.30;61.90
2957;DHT22;1488;51.548;7.222;2024-01-06T04:23:47;22.40;62.10
2957;DHT22;1488;51.548;7.222;2024-01-06T04:26:14;22.30;61.90
2957;DHT22;1488;51.548;7.222;2024-01-06T04:28:41;22.30;62.00
2957;DHT22;1488;51.548;7.222;2024-01-06T04:31:07;22.30;61.80
2957;DHT22;1488;51.548;7.222;2024-01-06T04:33:34;22.30;61.90
2957;DHT22;1488;51.548;7.222;2024-01-06T04:36:02;22.30;61.90
2957;DHT22;1488;51.548;7.222;2024-01-06T04:38:29;22.30;61.90
2957;DHT22;1488;51.548;7.222;2024-01-06T04:41:00;22.30;61.90
2957;DHT22;1488;51.548;7.222;2024-01-06T04:43:26;22.30;61.80
2957;DHT22;1488;51.548;7.222;2024-01-06T04:45:53;22.40;61.90
2957;DHT22;1488;51.548;7.222;2024-01-06T04:48:20;22.50;61.90
2957;DHT22;1488;51.548;7.222;2024-01-06T04:50:47;22.30;61.70
2957;DHT22;1488;51.548;7.222;2024-01-06T04:53:13;22.30;61.80
2957;DHT22;1488;51.548;7.222;2024-01-06T04:55:40;22.30;61.80
2957;DHT22;1488;51.548;7.222;2024-01-06T04:58:08;22.30;61.80
2957;DHT22;1488;51.548;7.222;2024-01-06T05:00:35;22.40;61.80
2957;DHT22;1488;51.548;7.222;2024-01-06T05:03:02;22.40;61.70
2957;DHT22;1488;51.548;7.222;2024-01-06T05:05:30;22.40;61.80
2957;DHT22;1488;51.548;7.222;2024-01-06T05:07:56;22.40;61.60
2957;DHT22;1488;51.548;7.222;2024-01-06T05:10:24;22.50;61.80
2957;DHT22;1488;51.548;7.222;2024-01-06T05:12:51;22.40;61.70
2957;DHT22;1488;51.548;7.222;2024-01-06T05:15:19;22.50;61.90
2957;DHT22;1488;51.548;7.222;2024-01-06T05:17:46;22.40;61.60
2957;DHT22;1488;51.548;7.222;2024-01-06T05:20:13;22.40;61.60
2957;DHT22;1488;51.548;7.222;2024-01-06T05:22:40;22.40;61.50
2957;DHT22;1488;51.548;7.222;2024-01-06T05:25:08;22.40;61.50
2957;DHT22;1488;51.548;7.222;2024-01-06T05:27:35;22.40;61.50
2957;DHT22;1488;51.548;7.222;2024-01-06T05:30:02;22.50;61.60
2957;DHT22;1488;51.548;7.222;2024-01-06T05:32:30;22.50;61.60
2957;DHT22;1488;51.548;7.222;2024-01-06T05:34:57;22.50;61.60
2957;DHT22;1488;51.548;7.222;2024-01-06T05:37:24;22.50;61.50
2957;DHT22;1488;51.548;7.222;2024-01-06T05:39:51;22.50;61.50
2957;DHT22;1488;51.548;7.222;2024-01-06T05:42:18;22.50;62.30
2957;DHT22;1488;51.548;7.222;2024-01-06T05:44:45;22.50;61.40
2957;DHT22;1488;51.548;7.222;2024-01-06T05:47:11;22.50;61.30
2957;DHT22;1488;51.548;7.222;2024-01-06T05:49:42;22.50;61.30
2957;DHT22;1488;51.548;7.222;2024-01-06T05:52:09;22.50;61.20
2957;DHT22;1488;51.548;7.222;2024-01-06T05:54:36;22.50;61.40
2957;DHT22;1488;51.548;7.222;2024-01-06T05:57:06;22.50;61.30
2957;DHT22;1488;51.548;7.222;2024-01-06T05:59:33;22.50;61.40
2957;DHT22;1488;51.548;7.222;2024-01-06T06:02:00;22.50;61.30
2957;DHT22;1488;51.548;7.222;2024-01-06T06:04:27;22.50;61.30
2957;DHT22;1488;51.548;7.222;2024-01-06T06:06:55;22.50;61.40
2957;DHT22;1488;51.548;7.222;2024-01-06T06:09:22;22.50;61.30
2957;DHT22;1488;51.548;7.222;2024-01-06T06:11:48;22.50;62.20
2957;DHT22;1488;51.548;7.222;2024-01-06T06:14:15;22.50;61.50
2957;DHT22;1488;51.548;7.222;2024-01-06T06:16:42;22.50;61.40
2957;DHT22;1488;51.548;7.222;2024-01-06T06:19:09;22.50;61.30
2957;DHT22;1488;51.548;7.222;2024-01-06T06:21:35;22.50;61.10
2957;DHT22;1488;51.548;7.222;2024-01-06T06:24:04;22.50;61.30
2957;DHT22;1488;51.548;7.222;2024-01-06T06:26:31;22.50;61.20
2957;DHT22;1488;51.548;7.222;2024-01-06T06:28:58;22.50;61.20
2957;DHT22;1488;51.548;7.222;2024-01-06T06:31:26;22.50;61.10
2957;DHT22;1488;51.548;7.222;2024-01-06T06:33:52;22.50;61.10
2957;DHT22;1488;51.548;7.222;2024-01-06T06:36:19;22.50;61.10
2957;DHT22;1488;51.548;7.222;2024-01-06T06:38:46;22.50;61.10
2957;DHT22;1488;51.548;7.222;2024-01-06T06:41:14;22.50;61.10
2957;DHT22;1488;51.548;7.222;2024-01-06T06:43:41;22.50;61.00
2957;DHT22;1488;51.548;7.222;2024-01-06T06:46:08;22.50;61.00
2957;DHT22;1488;51.548;7.222;2024-01-06T06:48:35;22.50;61.10
2957;DHT22;1488;51.548;7.222;2024-01-06T06:51:02;22.50;61.00
2957;DHT22;1488;51.548;7.222;2024-01-06T06:53:29;22.50;61.00
2957;DHT22;1488;51.548;7.222;2024-01-06T06:55:56;22.50;61.00
2957;DHT22;1488;51.548;7.222;2024-01-06T06:58:24;22.50;61.00
2957;DHT22;1488;51.548;7.222;2024-01-06T07:00:51;22.50;61.00
2957;DHT22;1488;51.548;7.222;2024-01-06T07:03:19;22.50;61.10
2957;DHT22;1488;51.548;7.222;2024-01-06T07:05:46;22.50;60.90
2957;DHT22;1488;51.548;7.222;2024-01-06T07:08:12;22.50;60.90
2957;DHT22;1488;51.548;7.222;2024-01-06T07:10:40;22.60;61.10
2957;DHT22;1488;51.548;7.222;2024-01-06T07:13:07;22.50;60.80
2957;DHT22;1488;51.548;7.222;2024-01-06T07:15:35;22.60;61.00
2957;DHT22;1488;51.548;7.222;2024-01-06T07:18:02;22.60;60.70
2957;DHT22;1488;51.548;7.222;2024-01-06T07:20:29;22.60;60.90
2957;DHT22;1488;51.548;7.222;2024-01-06T07:22:56;22.60;60.90
2957;DHT22;1488;51.548;7.222;2024-01-06T07:25:22;22.60;60.80
2957;DHT22;1488;51.548;7.222;2024-01-06T07:27:49;22.60;60.90
2957;DHT22;1488;51.548;7.222;2024-01-06T07:30:16;22.60;61.00
2957;DHT22;1488;51.548;7.222;2024-01-06T07:32:45;22.60;60.70
2957;DHT22;1488;51.548;7.222;2024-01-06T07:35:13;22.60;60.60
2957;DHT22;1488;51.548;7.222;2024-01-06T07:37:41;22.70;60.70
2957;DHT22;1488;51.548;7.222;2024-01-06T07:40:10;22.70;58.70
2957;DHT22;1488;51.548;7.222;2024-01-06T07:42:49;22.70;59.80
2957;DHT22;1488;51.548;7.222;2024-01-06T07:45:18;22.60;60.40
2957;DHT22;1488;51.548;7.222;2024-01-06T07:47:47;22.60;60.40
2957;DHT22;1488;51.548;7.222;2024-01-06T07:50:13;22.60;60.40
2957;DHT22;1488;51.548;7.222;2024-01-06T07:52:40;22.60;60.50
2957;DHT22;1488;51.548;7.222;2024-01-06T07:55:07;22.60;60.60
2957;DHT22;1488;51.548;7.222;2024-01-06T07:57:34;22.60;60.60
2957;DHT22;1488;51.548;7.222;2024-01-06T08:00:01;22.60;60.50
2957;DHT22;1488;51.548;7.222;2024-01-06T08:02:28;22.60;60.40
2957;DHT22;1488;51.548;7.222;2024-01-06T08:04:58;22.60;60.60
2957;DHT22;1488;51.548;7.222;2024-01-06T08:07:25;22.60;60.60
2957;DHT22;1488;51.548;7.222;2024-01-06T08:09:52;22.60;60.60
2957;DHT22;1488;51.548;7.222;2024-01-06T08:12:19;22.60;60.70
2957;DHT22;1488;51.548;7.222;2024-01-06T08:14:46;22.60;60.70
2957;DHT22;1488;51.548;7.222;2024-01-06T08:17:13;22.60;60.70
2957;DHT22;1488;51.548;7.222;2024-01-06T08:19:40;22.60;60.70
2957;DHT22;1488;51.548;7.222;2024-01-06T08:22:08;22.60;60.80
2957;DHT22;1488;51.548;7.222;2024-01-06T08:24:35;22.60;60.70
2957;DHT22;1488;51.548;7.222;2024-01-06T08:27:02;22.60;60.70
2957;DHT22;1488;51.548;7.222;2024-01-06T08:29:29;22.60;60.90
2957;DHT22;1488;51.548;7.222;2024-01-06T08:31:55;22.60;60.90
2957;DHT22;1488;51.548;7.222;2024-01-06T08:34:25;22.60;61.10
2957;DHT22;1488;51.548;7.222;2024-01-06T08:36:52;22.60;61.30
2957;DHT22;1488;51.548;7.222;2024-01-06T08:39:20;22.60;61.00
2957;DHT22;1488;51.548;7.222;2024-01-06T08:41:49;22.70;60.90
2957;DHT22;1488;51.548;7.222;2024-01-06T08:44:16;22.60;60.90
2957;DHT22;1488;51.548;7.222;2024-01-06T08:46:43;22.70;61.20
2957;DHT22;1488;51.548;7.222;2024-01-06T08:49:09;22.60;61.00
2957;DHT22;1488;51.548;7.222;2024-01-06T08:51:36;22.80;61.10
2957;DHT22;1488;51.548;7.222;2024-01-06T08:54:03;22.60;60.30
2957;DHT22;1488;51.548;7.222;2024-01-06T08:56:33;22.60;60.70
2957;DHT22;1488;51.548;7.222;2024-01-06T08:59:01;22.70;60.80
2957;DHT22;1488;51.548;7.222;2024-01-06T09:01:27;22.70;61.00
2957;DHT22;1488;51.548;7.222;2024-01-06T09:03:56;22.70;59.30
2957;DHT22;1488;51.548;7.222;2024-01-06T09:06:23;22.70;60.40
2957;DHT22;1488;51.548;7.222;2024-01-06T09:08:50;22.70;60.80
2957;DHT22;1488;51.548;7.222;2024-01-06T09:11:16;22.60;60.90
2957;DHT22;1488;51.548;7.222;2024-01-06T09:13:45;22.60;60.90
2957;DHT22;1488;51.548;7.222;2024-01-06T09:16:11;22.60;60.80
2957;DHT22;1488;51.548;7.222;2024-01-06T09:18:38;22.60;61.00
2957;DHT22;1488;51.548;7.222;2024-01-06T09:21:05;22.60;61.10
2957;DHT22;1488;51.548;7.222;2024-01-06T09:23:32;22.60;61.10
2957;DHT22;1488;51.548;7.222;2024-01-06T09:25:59;22.60;61.10
2957;DHT22;1488;51.548;7.222;2024-01-06T09:28:26;22.60;61.00
2957;DHT22;1488;51.548;7.222;2024-01-06T09:30:54;22.70;61.20
2957;DHT22;1488;51.548;7.222;2024-01-06T09:33:21;22.70;61.00
2957;DHT22;1488;51.548;7.222;2024-01-06T09:35:48;22.60;61.00
2957;DHT22;1488;51.548;7.222;2024-01-06T09:38:16;22.60;61.10
2957;DHT22;1488;51.548;7.222;2024-01-06T09:40:44;22.60;61.00
2957;DHT22;1488;51.548;7.222;2024-01-06T09:43:11;22.60;61.00
2957;DHT22;1488;51.548;7.222;2024-01-06T09:45:38;22.70;61.00
2957;DHT22;1488;51.548;7.222;2024-01-06T09:48:11;22.70;61.10
2957;DHT22;1488;51.548;7.222;2024-01-06T09:50:40;22.70;61.10
2957;DHT22;1488;51.548;7.222;2024-01-06T09:53:11;22.70;60.90
2957;DHT22;1488;51.548;7.222;2024-01-06T09:55:38;22.80;61.00
2957;DHT22;1488;51.548;7.222;2024-01-06T09:58:05;22.60;60.80
2957;DHT22;1488;51.548;7.222;2024-01-06T10:00:32;22.60;60.90
2957;DHT22;1488;51.548;7.222;2024-01-06T10:02:59;22.60;60.90
2957;DHT22;1488;51.548;7.222;2024-01-06T10:05:27;22.60;60.90
2957;DHT22;1488;51.548;7.222;2024-01-06T10:07:54;22.60;60.90
2957;DHT22;1488;51.548;7.222;2024-01-06T10:10:23;22.70;61.10
2957;DHT22;1488;51.548;7.222;2024-01-06T10:12:53;22.70;60.90
2957;DHT22;1488;51.548;7.222;2024-01-06T10:15:20;22.70;60.90
2957;DHT22;1488;51.548;7.222;2024-01-06T10:17:47;22.70;60.80
2957;DHT22;1488;51.548;7.222;2024-01-06T10:20:15;22.70;60.90
2957;DHT22;1488;51.548;7.222;2024-01-06T10:22:45;22.70;60.90
2957;DHT22;1488;51.548;7.222;2024-01-06T10:25:12;22.70;60.80
2957;DHT22;1488;51.548;7.222;2024-01-06T10:27:41;22.70;60.80
2957;DHT22;1488;51.548;7.222;2024-01-06T10:30:09;22.70;60.80
2957;DHT22;1488;51.548;7.222;2024-01-06T10:32:36;22.70;60.70
2957;DHT22;1488;51.548;7.222;2024-01-06T10:35:04;22.70;60.80
2957;DHT22;1488;51.548;7.222;2024-01-06T10:37:31;22.70;60.80
2957;DHT22;1488;51.548;7.222;2024-01-06T10:40:10;22.70;60.70
2957;DHT22;1488;51.548;7.222;2024-01-06T10:42:38;22.70;60.70
2957;DHT22;1488;51.548;7.222;2024-01-06T10:45:06;22.70;60.80
2957;DHT22;1488;51.548;7.222;2024-01-06T10:47:35;22.70;60.70
2957;DHT22;1488;51.548;7.222;2024-01-06T10:50:02;22.70;60.40
2957;DHT22;1488;51.548;7.222;2024-01-06T10:52:29;22.70;60.60
2957;DHT22;1488;51.548;7.222;2024-01-06T10:54:56;22.70;60.60
2957;DHT22;1488;51.548;7.222;2024-01-06T10:57:25;22.70;60.40
2957;DHT22;1488;51.548;7.222;2024-01-06T10:59:53;22.70;60.60
2957;DHT22;1488;51.548;7.222;2024-01-06T11:02:20;22.70;60.50
2957;DHT22;1488;51.548;7.222;2024-01-06T11:04:49;22.70;60.60
2957;DHT22;1488;51.548;7.222;2024-01-06T11:07:18;22.70;60.50
2957;DHT22;1488;51.548;7.222;2024-01-06T11:09:50;22.70;60.40
2957;DHT22;1488;51.548;7.222;2024-01-06T11:12:18;22.70;60.30
2957;DHT22;1488;51.548;7.222;2024-01-06T11:14:46;22.70;60.40
2957;DHT22;1488;51.548;7.222;2024-01-06T11:17:13;22.70;60.40
2957;DHT22;1488;51.548;7.222;2024-01-06T11:19:45;22.70;60.30
2957;DHT22;1488;51.548;7.222;2024-01-06T11:22:25;22.70;60.40
2957;DHT22;1488;51.548;7.222;2024-01-06T11:24:55;22.70;60.30
2957;DHT22;1488;51.548;7.222;2024-01-06T11:27:24;22.70;60.40
2957;DHT22;1488;51.548;7.222;2024-01-06T11:29:56;22.70;60.50
2957;DHT22;1488;51.548;7.222;2024-01-06T11:32:28;22.70;60.50
2957;DHT22;1488;51.548;7.222;2024-01-06T11:35:04;22.70;60.40
2957;DHT22;1488;51.548;7.222;2024-01-06T11:37:35;22.70;60.40
2957;DHT22;1488;51.548;7.222;2024-01-06T11:40:03;22.60;60.40
2957;DHT22;1488;51.548;7.222;2024-01-06T11:42:34;22.70;60.60
2957;DHT22;1488;51.548;7.222;2024-01-06T11:45:06;22.60;60.40
2957;DHT22;1488;51.548;7.222;2024-01-06T11:47:33;22.70;60.40
2957;DHT22;1488;51.548;7.222;2024-01-06T11:50:01;22.70;60.40
2957;DHT22;1488;51.548;7.222;2024-01-06T11:52:30;22.70;60.40
2957;DHT22;1488;51.548;7.222;2024-01-06T11:54:57;22.70;60.30
2957;DHT22;1488;51.548;7.222;2024-01-06T11:57:25;22.70;60.30
2957;DHT22;1488;51.548;7.222;2024-01-06T11:59:52;22.70;60.30
2957;DHT22;1488;51.548;7.222;2024-01-06T12:02:20;22.70;60.40
2957;DHT22;1488;51.548;7.222;2024-01-06T12:04:48;22.60;60.30
2957;DHT22;1488;51.548;7.222;2024-01-06T12:07:16;22.60;60.30
2957;DHT22;1488;51.548;7.222;2024-01-06T12:09:43;22.60;60.20
2957;DHT22;1488;51.548;7.222;2024-01-06T12:12:15;22.60;60.30
2957;DHT22;1488;51.548;7.222;2024-01-06T12:14:42;22.70;60.30
2957;DHT22;1488;51.548;7.222;2024-01-06T12:17:09;22.70;60.30
2957;DHT22;1488;51.548;7.222;2024-01-06T12:19:37;22.70;60.40
2957;DHT22;1488;51.548;7.222;2024-01-06T12:22:09;22.70;60.30
2957;DHT22;1488;51.548;7.222;2024-01-06T12:24:36;22.70;60.30
2957;DHT22;1488;51.548;7.222;2024-01-06T12:27:03;22.60;60.30
2957;DHT22;1488;51.548;7.222;2024-01-06T12:29:30;22.70;60.20
2957;DHT22;1488;51.548;7.222;2024-01-06T12:31:59;22.70;60.20
2957;DHT22;1488;51.548;7.222;2024-01-06T12:34:26;22.70;60.30
2957;DHT22;1488;51.548;7.222;2024-01-06T12:36:54;22.70;60.20
2957;DHT22;1488;51.548;7.222;2024-01-06T12:39:21;22.80;60.30
2957;DHT22;1488;51.548;7.222;2024-01-06T12:41:50;22.70;60.10
2957;DHT22;1488;51.548;7.222;2024-01-06T12:44:18;22.70;60.10
2957;DHT22;1488;51.548;7.222;2024-01-06T12:46:44;22.70;60.10
2957;DHT22;1488;51.548;7.222;2024-01-06T12:49:11;22.70;60.10
2957;DHT22;1488;51.548;7.222;2024-01-06T12:51:38;22.70;60.30
2957;DHT22;1488;51.548;7.222;2024-01-06T12:54:07;22.60;60.00
2957;DHT22;1488;51.548;7.222;2024-01-06T12:56:33;22.70;60.10
2957;DHT22;1488;51.548;7.222;2024-01-06T12:59:00;22.70;60.10
2957;DHT22;1488;51.548;7.222;2024-01-06T13:01:27;22.60;60.10
2957;DHT22;1488;51.548;7.222;2024-01-06T13:03:54;22.70;60.10
2957;DHT22;1488;51.548;7.222;2024-01-06T13:06:21;22.70;60.10
2957;DHT22;1488;51.548;7.222;2024-01-06T13:08:48;22.70;60.10
2957;DHT22;1488;51.548;7.222;2024-01-06T13:11:16;22.60;59.90
2957;DHT22;1488;51.548;7.222;2024-01-06T13:13:43;22.70;60.10
2957;DHT22;1488;51.548;7.222;2024-01-06T13:16:10;22.60;60.00
2957;DHT22;1488;51.548;7.222;2024-01-06T13:18:37;22.70;60.10
2957;DHT22;1488;51.548;7.222;2024-01-06T13:21:04;22.60;59.90
2957;DHT22;1488;51.548;7.222;2024-01-06T13:23:31;22.70;60.00
2957;DHT22;1488;51.548;7.222;2024-01-06T13:25:58;22.70;60.00
2957;DHT22;1488;51.548;7.222;2024-01-06T13:28:27;22.70;60.00
2957;DHT22;1488;51.548;7.222;2024-01-06T13:30:53;22.70;60.70
2957;DHT22;1488;51.548;7.222;2024-01-06T13:33:20;22.70;60.00
2957;DHT22;1488;51.548;7.222;2024-01-06T13:35:48;22.70;60.00
2957;DHT22;1488;51.548;7.222;2024-01-06T13:38:16;22.70;59.90
2957;DHT22;1488;51.548;7.222;2024-01-06T13:40:42;22.70;59.90
2957;DHT22;1488;51.548;7.222;2024-01-06T13:43:09;22.70;60.00
2957;DHT22;1488;51.548;7.222;2024-01-06T13:45:42;22.70;59.90
2957;DHT22;1488;51.548;7.222;2024-01-06T13:48:10;22.70;59.90
2957;DHT22;1488;51.548;7.222;2024-01-06T13:50:36;22.70;59.90
2957;DHT22;1488;51.548;7.222;2024-01-06T13:53:05;22.70;59.90
2957;DHT22;1488;51.548;7.222;2024-01-06T13:55:32;22.70;59.80
2957;DHT22;1488;51.548;7.222;2024-01-06T13:57:59;22.70;59.90
2957;DHT22;1488;51.548;7.222;2024-01-06T14:00:26;22.70;59.90
2957;DHT22;1488;51.548;7.222;2024-01-06T14:02:55;22.70;59.90
2957;DHT22;1488;51.548;7.222;2024-01-06T14:05:22;22.70;59.90
2957;DHT22;1488;51.548;7.222;2024-01-06T14:07:49;22.70;59.80
2957;DHT22;1488;51.548;7.222;2024-01-06T14:10:17;22.70;59.90
2957;DHT22;1488;51.548;7.222;2024-01-06T14:12:44;22.70;59.80
2957;DHT22;1488;51.548;7.222;2024-01-06T14:15:11;22.70;59.80
2957;DHT22;1488;51.548;7.222;2024-01-06T14:17:38;22.70;59.80
2957;DHT22;1488;51.548;7.222;2024-01-06T14:20:08;22.70;59.80
2957;DHT22;1488;51.548;7.222;2024-01-06T14:22:38;22.70;59.70
2957;DHT22;1488;51.548;7.222;2024-01-06T14:25:06;22.70;59.80
2957;DHT22;1488;51.548;7.222;2024-01-06T14:27:33;22.70;59.80
2957;DHT22;1488;51.548;7.222;2024-01-06T14:30:00;22.70;59.80
2957;DHT22;1488;51.548;7.222;2024-01-06T14:32:26;22.60;59.80
2957;DHT22;1488;51.548;7.222;2024-01-06T14:34:54;22.60;59.80
2957;DHT22;1488;51.548;7.222;2024-01-06T14:37:22;22.70;59.70
2957;DHT22;1488;51.548;7.222;2024-01-06T14:39:49;22.70;59.80
2957;DHT22;1488;51.548;7.222;2024-01-06T14:42:16;22.60;59.70
2957;DHT22;1488;51.548;7.222;2024-01-06T14:44:44;22.60;59.70
2957;DHT22;1488;51.548;7.222;2024-01-06T14:47:11;22.60;59.70
2957;DHT22;1488;51.548;7.222;2024-01-06T14:49:38;22.60;59.80
2957;DHT22;1488;51.548;7.222;2024-01-06T14:52:05;22.70;59.80
2957;DHT22;1488;51.548;7.222;2024-01-06T14:54:34;22.60;59.70
2957;DHT22;1488;51.548;7.222;2024-01-06T14:57:01;22.60;59.70
2957;DHT22;1488;51.548;7.222;2024-01-06T14:59:28;22.60;59.60
2957;DHT22;1488;51.548;7.222;2024-01-06T15:01:55;22.60;59.60
2957;DHT22;1488;51.548;7.222;2024-01-06T15:04:22;22.60;60.20
2957;DHT22;1488;51.548;7.222;2024-01-06T15:06:48;22.60;59.60
2957;DHT22;1488;51.548;7.222;2024-01-06T15:09:16;22.70;59.70
2957;DHT22;1488;51.548;7.222;2024-01-06T15:11:45;22.70;59.70
2957;DHT22;1488;51.548;7.222;2024-01-06T15:14:12;22.70;59.60
2957;DHT22;1488;51.548;7.222;2024-01-06T15:16:39;22.60;60.30
2957;DHT22;1488;51.548;7.222;2024-01-06T15:19:06;22.60;59.70
2957;DHT22;1488;51.548;7.222;2024-01-06T15:21:33;22.60;59.70
2957;DHT22;1488;51.548;7.222;2024-01-06T15:24:02;22.60;59.70
2957;DHT22;1488;51.548;7.222;2024-01-06T15:26:29;22.60;59.60
2957;DHT22;1488;51.548;7.222;2024-01-06T15:28:57;22.60;59.60
2957;DHT22;1488;51.548;7.222;2024-01-06T15:31:26;22.60;59.60
2957;DHT22;1488;51.548;7.222;2024-01-06T15:33:53;22.70;59.70
2957;DHT22;1488;51.548;7.222;2024-01-06T15:36:20;22.60;59.60
2957;DHT22;1488;51.548;7.222;2024-01-06T15:38:47;22.70;59.60
2957;DHT22;1488;51.548;7.222;2024-01-06T15:41:15;22.60;60.20
2957;DHT22;1488;51.548;7.222;2024-01-06T15:43:41;22.60;59.60
2957;DHT22;1488;51.548;7.222;2024-01-06T15:46:10;22.60;59.60
2957;DHT22;1488;51.548;7.222;2024-01-06T15:48:37;22.60;59.50
2957;DHT22;1488;51.548;7.222;2024-01-06T15:51:04;22.60;59.60
2957;DHT22;1488;51.548;7.222;2024-01-06T15:53:31;22.60;59.50
2957;DHT22;1488;51.548;7.222;2024-01-06T15:55:59;22.70;59.50
2957;DHT22;1488;51.548;7.222;2024-01-06T15:58:26;22.70;59.50
2957;DHT22;1488;51.548;7.222;2024-01-06T16:00:53;22.70;59.60
2957;DHT22;1488;51.548;7.222;2024-01-06T16:03:21;22.70;59.50